sensor_id;sensor_type;location;lat;lon;timestamp;P1;durP1;ratioP1;P2;durP2;ratioP2
8439;SDS011;4257;48.568;7.818;2022-09-12T00:02:10;2.45;;;1.35;;
8439;SDS011;4257;48.568;7.818;2022-09-12T00:04:57;1.50;;;0.90;;
8439;SDS011;4257;48.568;7.818;2022-09-12T00:07:44;1.05;;;0.90;;
8439;SDS011;4257;48.568;7.818;2022-09-12T00:10:31;1.15;;;0.80;;
8439;SDS011;4257;48.568;7.818;2022-09-12T00:13:19;2.30;;;0.90;;
8439;SDS011;4257;48.568;7.818;2022-09-12T00:16:06;1.45;;;0.85;;
8439;SDS011;4257;48.568;7.818;2022-09-12T00:18:53;1.42;;;0.85;;
8439;SDS011;4257;48.568;7.818;2022-09-12T00:21:40;3.45;;;0.77;;
8439;SDS011;4257;48.568;7.818;2022-09-12T00:24:27;1.23;;;0.85;;
8439;SDS011;4257;48.568;7.818;2022-09-12T00:27:14;2.15;;;1.10;;
8439;SDS011;4257;48.568;7.818;2022-09-12T00:30:02;2.60;;;1.45;;
8439;SDS011;4257;48.568;7.818;2022-09-12T00:32:49;1.80;;;1.20;;
8439;SDS011;4257;48.568;7.818;2022-09-12T00:35:42;1.48;;;0.98;;
8439;SDS011;4257;48.568;7.818;2022-09-12T00:38:29;1.50;;;0.80;;
8439;SDS011;4257;48.568;7.818;2022-09-12T00:41:17;1.60;;;1.17;;
8439;SDS011;4257;48.568;7.818;2022-09-12T00:47:27;1.30;;;0.95;;
8439;SDS011;4257;48.568;7.818;2022-09-12T00:50:14;1.08;;;0.75;;
8439;SDS011;4257;48.568;7.818;2022-09-12T00:53:03;2.10;;;1.27;;
8439;SDS011;4257;48.568;7.818;2022-09-12T00:55:51;2.35;;;1.00;;
8439;SDS011;4257;48.568;7.818;2022-09-12T00:58:40;1.05;;;0.98;;
8439;SDS011;4257;48.568;7.818;2022-09-12T01:01:29;3.13;;;1.20;;
8439;SDS011;4257;48.568;7.818;2022-09-12T01:04:17;1.70;;;0.82;;
8439;SDS011;4257;48.568;7.818;2022-09-12T01:07:06;3.78;;;1.30;;
8439;SDS011;4257;48.568;7.818;2022-09-12T01:09:53;1.83;;;1.08;;
8439;SDS011;4257;48.568;7.818;2022-09-12T01:12:41;1.55;;;0.90;;
8439;SDS011;4257;48.568;7.818;2022-09-12T01:15:28;2.47;;;1.10;;
8439;SDS011;4257;48.568;7.818;2022-09-12T01:18:17;2.15;;;1.20;;
8439;SDS011;4257;48.568;7.818;2022-09-12T01:21:12;1.20;;;0.98;;
8439;SDS011;4257;48.568;7.818;2022-09-12T01:24:21;1.20;;;0.77;;
8439;SDS011;4257;48.568;7.818;2022-09-12T01:30:30;1.75;;;1.15;;
8439;SDS011;4257;48.568;7.818;2022-09-12T01:33:34;2.28;;;1.15;;
8439;SDS011;4257;48.568;7.818;2022-09-12T01:39:32;2.58;;;0.85;;
8439;SDS011;4257;48.568;7.818;2022-09-12T01:42:25;1.88;;;1.17;;
8439;SDS011;4257;48.568;7.818;2022-09-12T01:45:19;1.60;;;1.13;;
8439;SDS011;4257;48.568;7.818;2022-09-12T01:48:12;4.78;;;1.70;;
8439;SDS011;4257;48.568;7.818;2022-09-12T01:51:03;2.60;;;1.50;;
8439;SDS011;4257;48.568;7.818;2022-09-12T01:53:54;0.90;;;0.77;;
8439;SDS011;4257;48.568;7.818;2022-09-12T01:56:45;1.98;;;1.00;;
8439;SDS011;4257;48.568;7.818;2022-09-12T01:59:33;1.63;;;1.05;;
8439;SDS011;4257;48.568;7.818;2022-09-12T02:02:22;4.05;;;1.40;;
8439;SDS011;4257;48.568;7.818;2022-09-12T02:05:15;3.60;;;1.15;;
8439;SDS011;4257;48.568;7.818;2022-09-12T02:08:06;2.83;;;1.50;;
8439;SDS011;4257;48.568;7.818;2022-09-12T02:10:55;2.15;;;1.27;;
8439;SDS011;4257;48.568;7.818;2022-09-12T02:13:44;1.85;;;1.48;;
8439;SDS011;4257;48.568;7.818;2022-09-12T02:16:34;2.35;;;1.40;;
8439;SDS011;4257;48.568;7.818;2022-09-12T02:19:23;1.98;;;1.40;;
8439;SDS011;4257;48.568;7.818;2022-09-12T02:22:16;1.33;;;0.70;;
8439;SDS011;4257;48.568;7.818;2022-09-12T02:25:04;0.90;;;0.70;;
8439;SDS011;4257;48.568;7.818;2022-09-12T02:27:53;1.17;;;0.98;;
8439;SDS011;4257;48.568;7.818;2022-09-12T02:30:42;2.03;;;1.15;;
8439;SDS011;4257;48.568;7.818;2022-09-12T02:33:34;1.30;;;0.85;;
8439;SDS011;4257;48.568;7.818;2022-09-12T02:36:28;1.40;;;1.17;;
8439;SDS011;4257;48.568;7.818;2022-09-12T02:39:20;2.85;;;1.10;;
8439;SDS011;4257;48.568;7.818;2022-09-12T02:42:06;1.15;;;0.68;;
8439;SDS011;4257;48.568;7.818;2022-09-12T02:44:54;1.65;;;1.02;;
8439;SDS011;4257;48.568;7.818;2022-09-12T02:47:43;1.70;;;1.25;;
8439;SDS011;4257;48.568;7.818;2022-09-12T02:50:31;1.45;;;0.93;;
8439;SDS011;4257;48.568;7.818;2022-09-12T02:53:18;1.27;;;0.70;;
8439;SDS011;4257;48.568;7.818;2022-09-12T02:56:07;0.98;;;0.77;;
8439;SDS011;4257;48.568;7.818;2022-09-12T02:58:58;2.08;;;1.20;;
8439;SDS011;4257;48.568;7.818;2022-09-12T03:05:10;1.80;;;0.95;;
8439;SDS011;4257;48.568;7.818;2022-09-12T03:08:13;1.63;;;0.90;;
8439;SDS011;4257;48.568;7.818;2022-09-12T03:11:26;1.70;;;1.30;;
8439;SDS011;4257;48.568;7.818;2022-09-12T03:14:26;0.97;;;0.70;;
8439;SDS011;4257;48.568;7.818;2022-09-12T03:17:21;3.00;;;0.90;;
8439;SDS011;4257;48.568;7.818;2022-09-12T03:20:12;1.47;;;0.70;;
8439;SDS011;4257;48.568;7.818;2022-09-12T03:23:03;1.33;;;1.03;;
8439;SDS011;4257;48.568;7.818;2022-09-12T03:25:52;1.10;;;0.67;;
8439;SDS011;4257;48.568;7.818;2022-09-12T03:28:42;1.53;;;0.77;;
8439;SDS011;4257;48.568;7.818;2022-09-12T03:31:30;1.57;;;0.87;;
8439;SDS011;4257;48.568;7.818;2022-09-12T03:34:17;1.50;;;0.93;;
8439;SDS011;4257;48.568;7.818;2022-09-12T03:37:04;1.70;;;1.07;;
8439;SDS011;4257;48.568;7.818;2022-09-12T03:39:51;2.30;;;0.93;;
8439;SDS011;4257;48.568;7.818;2022-09-12T03:42:38;6.33;;;1.00;;
8439;SDS011;4257;48.568;7.818;2022-09-12T03:45:26;2.07;;;1.00;;
8439;SDS011;4257;48.568;7.818;2022-09-12T03:48:13;0.70;;;0.70;;
8439;SDS011;4257;48.568;7.818;2022-09-12T03:51:00;1.10;;;0.70;;
8439;SDS011;4257;48.568;7.818;2022-09-12T03:53:46;0.97;;;0.83;;
8439;SDS011;4257;48.568;7.818;2022-09-12T03:56:33;1.13;;;0.73;;
8439;SDS011;4257;48.568;7.818;2022-09-12T03:59:21;1.33;;;0.80;;
8439;SDS011;4257;48.568;7.818;2022-09-12T04:02:09;1.57;;;0.87;;
8439;SDS011;4257;48.568;7.818;2022-09-12T04:04:58;0.80;;;0.70;;
8439;SDS011;4257;48.568;7.818;2022-09-12T04:07:44;1.50;;;0.97;;
8439;SDS011;4257;48.568;7.818;2022-09-12T04:10:31;1.47;;;0.90;;
8439;SDS011;4257;48.568;7.818;2022-09-12T04:13:18;1.33;;;1.20;;
8439;SDS011;4257;48.568;7.818;2022-09-12T04:16:05;0.80;;;0.63;;
8439;SDS011;4257;48.568;7.818;2022-09-12T04:18:54;1.20;;;0.87;;
8439;SDS011;4257;48.568;7.818;2022-09-12T04:21:40;2.53;;;0.97;;
8439;SDS011;4257;48.568;7.818;2022-09-12T04:24:27;1.70;;;0.80;;
8439;SDS011;4257;48.568;7.818;2022-09-12T04:27:14;5.13;;;2.27;;
8439;SDS011;4257;48.568;7.818;2022-09-12T04:30:01;0.90;;;0.80;;
8439;SDS011;4257;48.568;7.818;2022-09-12T04:32:48;1.10;;;0.90;;
8439;SDS011;4257;48.568;7.818;2022-09-12T04:35:37;2.40;;;1.00;;
8439;SDS011;4257;48.568;7.818;2022-09-12T04:38:24;2.37;;;1.30;;
8439;SDS011;4257;48.568;7.818;2022-09-12T04:41:11;0.87;;;0.70;;
8439;SDS011;4257;48.568;7.818;2022-09-12T04:43:59;1.00;;;0.60;;
8439;SDS011;4257;48.568;7.818;2022-09-12T04:46:46;1.80;;;0.90;;
8439;SDS011;4257;48.568;7.818;2022-09-12T04:49:33;2.87;;;0.60;;
8439;SDS011;4257;48.568;7.818;2022-09-12T04:52:22;1.10;;;0.70;;
8439;SDS011;4257;48.568;7.818;2022-09-12T04:55:08;1.23;;;0.90;;
8439;SDS011;4257;48.568;7.818;2022-09-12T04:57:55;1.43;;;0.90;;
8439;SDS011;4257;48.568;7.818;2022-09-12T05:00:42;0.50;;;0.50;;
8439;SDS011;4257;48.568;7.818;2022-09-12T05:03:29;1.00;;;0.77;;
8439;SDS011;4257;48.568;7.818;2022-09-12T05:06:17;2.57;;;0.70;;
8439;SDS011;4257;48.568;7.818;2022-09-12T05:09:07;0.40;;;0.40;;
8439;SDS011;4257;48.568;7.818;2022-09-12T05:11:56;1.40;;;0.70;;
8439;SDS011;4257;48.568;7.818;2022-09-12T05:14:43;0.70;;;0.70;;
8439;SDS011;4257;48.568;7.818;2022-09-12T05:17:30;0.80;;;0.67;;
8439;SDS011;4257;48.568;7.818;2022-09-12T05:20:17;2.10;;;1.13;;
8439;SDS011;4257;48.568;7.818;2022-09-12T05:23:04;1.90;;;1.13;;
8439;SDS011;4257;48.568;7.818;2022-09-12T05:25:53;1.57;;;0.97;;
8439;SDS011;4257;48.568;7.818;2022-09-12T05:28:40;1.97;;;1.07;;
8439;SDS011;4257;48.568;7.818;2022-09-12T05:31:28;2.20;;;1.20;;
8439;SDS011;4257;48.568;7.818;2022-09-12T05:34:15;1.17;;;0.90;;
8439;SDS011;4257;48.568;7.818;2022-09-12T05:37:01;1.47;;;0.97;;
8439;SDS011;4257;48.568;7.818;2022-09-12T05:39:48;1.43;;;0.90;;
8439;SDS011;4257;48.568;7.818;2022-09-12T05:42:37;2.00;;;0.80;;
8439;SDS011;4257;48.568;7.818;2022-09-12T05:45:24;3.60;;;1.70;;
8439;SDS011;4257;48.568;7.818;2022-09-12T05:48:12;3.60;;;1.60;;
8439;SDS011;4257;48.568;7.818;2022-09-12T05:50:59;3.83;;;1.43;;
8439;SDS011;4257;48.568;7.818;2022-09-12T05:53:47;7.13;;;2.37;;
8439;SDS011;4257;48.568;7.818;2022-09-12T05:56:36;4.37;;;1.40;;
8439;SDS011;4257;48.568;7.818;2022-09-12T05:59:25;9.73;;;1.93;;
8439;SDS011;4257;48.568;7.818;2022-09-12T06:02:12;17.10;;;2.60;;
8439;SDS011;4257;48.568;7.818;2022-09-12T06:05:00;6.23;;;2.33;;
8439;SDS011;4257;48.568;7.818;2022-09-12T06:07:47;38.33;;;3.13;;
8439;SDS011;4257;48.568;7.818;2022-09-12T06:10:33;15.90;;;2.20;;
8439;SDS011;4257;48.568;7.818;2022-09-12T06:13:20;18.63;;;2.37;;
8439;SDS011;4257;48.568;7.818;2022-09-12T06:16:09;15.83;;;2.00;;
8439;SDS011;4257;48.568;7.818;2022-09-12T06:18:59;8.40;;;2.53;;
8439;SDS011;4257;48.568;7.818;2022-09-12T06:21:47;3.83;;;1.73;;
8439;SDS011;4257;48.568;7.818;2022-09-12T06:24:34;3.90;;;1.13;;
8439;SDS011;4257;48.568;7.818;2022-09-12T06:27:21;2.80;;;1.07;;
8439;SDS011;4257;48.568;7.818;2022-09-12T06:30:08;0.97;;;0.80;;
8439;SDS011;4257;48.568;7.818;2022-09-12T06:32:57;2.03;;;1.17;;
8439;SDS011;4257;48.568;7.818;2022-09-12T06:35:44;3.00;;;1.33;;
8439;SDS011;4257;48.568;7.818;2022-09-12T06:38:30;2.30;;;1.27;;
8439;SDS011;4257;48.568;7.818;2022-09-12T06:41:17;1.17;;;0.60;;
8439;SDS011;4257;48.568;7.818;2022-09-12T06:44:04;2.63;;;1.33;;
8439;SDS011;4257;48.568;7.818;2022-09-12T06:46:51;1.77;;;1.10;;
8439;SDS011;4257;48.568;7.818;2022-09-12T06:49:40;1.90;;;1.23;;
8439;SDS011;4257;48.568;7.818;2022-09-12T06:52:26;1.73;;;1.10;;
8439;SDS011;4257;48.568;7.818;2022-09-12T06:55:14;2.37;;;1.17;;
8439;SDS011;4257;48.568;7.818;2022-09-12T06:58:01;1.57;;;1.17;;
8439;SDS011;4257;48.568;7.818;2022-09-12T07:00:48;2.30;;;1.27;;
8439;SDS011;4257;48.568;7.818;2022-09-12T07:03:35;2.67;;;1.57;;
8439;SDS011;4257;48.568;7.818;2022-09-12T07:06:24;1.53;;;1.23;;
8439;SDS011;4257;48.568;7.818;2022-09-12T07:09:15;1.30;;;1.07;;
8439;SDS011;4257;48.568;7.818;2022-09-12T07:12:03;1.00;;;0.90;;
8439;SDS011;4257;48.568;7.818;2022-09-12T07:14:50;1.47;;;1.10;;
8439;SDS011;4257;48.568;7.818;2022-09-12T07:17:37;3.23;;;2.03;;
8439;SDS011;4257;48.568;7.818;2022-09-12T07:20:24;3.10;;;1.73;;
8439;SDS011;4257;48.568;7.818;2022-09-12T07:23:12;5.60;;;2.70;;
8439;SDS011;4257;48.568;7.818;2022-09-12T07:25:59;5.70;;;2.40;;
8439;SDS011;4257;48.568;7.818;2022-09-12T07:28:49;4.27;;;2.10;;
8439;SDS011;4257;48.568;7.818;2022-09-12T07:31:37;2.03;;;1.87;;
8439;SDS011;4257;48.568;7.818;2022-09-12T07:34:24;3.27;;;1.53;;
8439;SDS011;4257;48.568;7.818;2022-09-12T07:37:10;4.37;;;1.90;;
8439;SDS011;4257;48.568;7.818;2022-09-12T07:39:59;2.63;;;1.80;;
8439;SDS011;4257;48.568;7.818;2022-09-12T07:42:47;3.63;;;1.83;;
8439;SDS011;4257;48.568;7.818;2022-09-12T07:45:34;2.53;;;1.50;;
8439;SDS011;4257;48.568;7.818;2022-09-12T07:48:20;3.70;;;1.77;;
8439;SDS011;4257;48.568;7.818;2022-09-12T07:51:08;2.67;;;1.63;;
8439;SDS011;4257;48.568;7.818;2022-09-12T07:53:56;2.72;;;1.75;;
8439;SDS011;4257;48.568;7.818;2022-09-12T07:56:45;8.13;;;2.22;;
8439;SDS011;4257;48.568;7.818;2022-09-12T07:59:31;6.50;;;2.10;;
8439;SDS011;4257;48.568;7.818;2022-09-12T08:02:18;2.23;;;1.70;;
8439;SDS011;4257;48.568;7.818;2022-09-12T08:05:05;3.10;;;2.13;;
8439;SDS011;4257;48.568;7.818;2022-09-12T08:07:52;2.53;;;1.30;;
8439;SDS011;4257;48.568;7.818;2022-09-12T08:10:39;2.25;;;1.35;;
8439;SDS011;4257;48.568;7.818;2022-09-12T08:13:27;2.63;;;1.63;;
8439;SDS011;4257;48.568;7.818;2022-09-12T08:16:15;2.10;;;1.35;;
8439;SDS011;4257;48.568;7.818;2022-09-12T08:19:03;1.45;;;1.30;;
8439;SDS011;4257;48.568;7.818;2022-09-12T08:21:50;1.50;;;1.38;;
8439;SDS011;4257;48.568;7.818;2022-09-12T08:24:36;2.15;;;1.23;;
8439;SDS011;4257;48.568;7.818;2022-09-12T08:27:24;1.70;;;1.10;;
8439;SDS011;4257;48.568;7.818;2022-09-12T08:30:13;2.17;;;1.33;;
8439;SDS011;4257;48.568;7.818;2022-09-12T08:33:00;1.70;;;1.20;;
8439;SDS011;4257;48.568;7.818;2022-09-12T08:35:46;1.40;;;1.08;;
8439;SDS011;4257;48.568;7.818;2022-09-12T08:38:35;2.47;;;1.08;;
8439;SDS011;4257;48.568;7.818;2022-09-12T08:41:24;1.40;;;0.80;;
8439;SDS011;4257;48.568;7.818;2022-09-12T08:44:16;1.10;;;0.63;;
8439;SDS011;4257;48.568;7.818;2022-09-12T08:47:20;1.58;;;1.27;;
8439;SDS011;4257;48.568;7.818;2022-09-12T08:50:11;1.23;;;1.00;;
8439;SDS011;4257;48.568;7.818;2022-09-12T08:53:02;0.93;;;0.60;;
8439;SDS011;4257;48.568;7.818;2022-09-12T08:55:51;1.10;;;0.88;;
8439;SDS011;4257;48.568;7.818;2022-09-12T08:58:41;1.92;;;0.70;;
8439;SDS011;4257;48.568;7.818;2022-09-12T09:01:29;3.00;;;2.03;;
8439;SDS011;4257;48.568;7.818;2022-09-12T09:04:22;2.60;;;1.85;;
8439;SDS011;4257;48.568;7.818;2022-09-12T09:07:17;3.20;;;2.28;;
8439;SDS011;4257;48.568;7.818;2022-09-12T09:10:15;5.28;;;1.80;;
8439;SDS011;4257;48.568;7.818;2022-09-12T09:13:07;2.83;;;1.30;;
8439;SDS011;4257;48.568;7.818;2022-09-12T09:16:23;2.92;;;1.90;;
8439;SDS011;4257;48.568;7.818;2022-09-12T09:19:13;2.53;;;1.70;;
8439;SDS011;4257;48.568;7.818;2022-09-12T09:22:05;3.58;;;1.92;;
8439;SDS011;4257;48.568;7.818;2022-09-12T09:24:57;4.22;;;1.85;;
8439;SDS011;4257;48.568;7.818;2022-09-12T09:27:48;1.40;;;1.25;;
8439;SDS011;4257;48.568;7.818;2022-09-12T09:30:37;2.25;;;0.85;;
8439;SDS011;4257;48.568;7.818;2022-09-12T09:33:26;2.17;;;1.30;;
8439;SDS011;4257;48.568;7.818;2022-09-12T09:36:16;1.35;;;0.80;;
8439;SDS011;4257;48.568;7.818;2022-09-12T09:39:10;1.40;;;0.63;;
8439;SDS011;4257;48.568;7.818;2022-09-12T09:42:07;2.60;;;1.60;;
8439;SDS011;4257;48.568;7.818;2022-09-12T09:44:58;0.98;;;0.88;;
8439;SDS011;4257;48.568;7.818;2022-09-12T09:47:50;1.33;;;0.70;;
8439;SDS011;4257;48.568;7.818;2022-09-12T09:50:38;1.25;;;0.85;;
8439;SDS011;4257;48.568;7.818;2022-09-12T09:53:28;2.60;;;0.85;;
8439;SDS011;4257;48.568;7.818;2022-09-12T09:56:26;1.13;;;0.65;;
8439;SDS011;4257;48.568;7.818;2022-09-12T09:59:15;1.20;;;0.90;;
8439;SDS011;4257;48.568;7.818;2022-09-12T10:02:15;2.78;;;1.08;;
8439;SDS011;4257;48.568;7.818;2022-09-12T10:05:15;1.05;;;0.88;;
8439;SDS011;4257;48.568;7.818;2022-09-12T10:08:02;2.15;;;0.70;;
8439;SDS011;4257;48.568;7.818;2022-09-12T10:10:58;3.28;;;0.82;;
8439;SDS011;4257;48.568;7.818;2022-09-12T10:13:52;2.53;;;0.85;;
8439;SDS011;4257;48.568;7.818;2022-09-12T10:16:47;1.17;;;0.70;;
8439;SDS011;4257;48.568;7.818;2022-09-12T10:19:37;1.65;;;0.73;;
8439;SDS011;4257;48.568;7.818;2022-09-12T10:22:25;0.68;;;0.65;;
8439;SDS011;4257;48.568;7.818;2022-09-12T10:25:14;1.65;;;0.70;;
8439;SDS011;4257;48.568;7.818;2022-09-12T10:28:03;0.75;;;0.63;;
8439;SDS011;4257;48.568;7.818;2022-09-12T10:30:51;1.10;;;0.60;;
8439;SDS011;4257;48.568;7.818;2022-09-12T10:33:41;1.17;;;0.90;;
8439;SDS011;4257;48.568;7.818;2022-09-12T10:36:34;1.05;;;0.60;;
8439;SDS011;4257;48.568;7.818;2022-09-12T10:39:21;1.10;;;0.80;;
8439;SDS011;4257;48.568;7.818;2022-09-12T10:42:11;0.73;;;0.70;;
8439;SDS011;4257;48.568;7.818;2022-09-12T10:44:59;0.80;;;0.47;;
8439;SDS011;4257;48.568;7.818;2022-09-12T10:47:48;0.55;;;0.32;;
8439;SDS011;4257;48.568;7.818;2022-09-12T10:50:37;0.40;;;0.30;;
8439;SDS011;4257;48.568;7.818;2022-09-12T10:53:26;1.10;;;0.60;;
8439;SDS011;4257;48.568;7.818;2022-09-12T10:56:15;5.05;;;0.63;;
8439;SDS011;4257;48.568;7.818;2022-09-12T10:59:06;0.68;;;0.52;;
8439;SDS011;4257;48.568;7.818;2022-09-12T11:01:59;1.13;;;0.70;;
8439;SDS011;4257;48.568;7.818;2022-09-12T11:04:51;1.95;;;0.55;;
8439;SDS011;4257;48.568;7.818;2022-09-12T11:07:44;0.93;;;0.50;;
8439;SDS011;4257;48.568;7.818;2022-09-12T11:10:34;0.55;;;0.55;;
8439;SDS011;4257;48.568;7.818;2022-09-12T11:13:28;0.80;;;0.60;;
8439;SDS011;4257;48.568;7.818;2022-09-12T11:16:26;0.70;;;0.45;;
8439;SDS011;4257;48.568;7.818;2022-09-12T11:19:31;3.33;;;0.50;;
8439;SDS011;4257;48.568;7.818;2022-09-12T11:22:32;0.65;;;0.55;;
8439;SDS011;4257;48.568;7.818;2022-09-12T11:25:27;0.30;;;0.30;;
8439;SDS011;4257;48.568;7.818;2022-09-12T11:28:22;0.60;;;0.60;;
8439;SDS011;4257;48.568;7.818;2022-09-12T11:31:21;1.75;;;0.40;;
8439;SDS011;4257;48.568;7.818;2022-09-12T11:34:21;0.75;;;0.68;;
8439;SDS011;4257;48.568;7.818;2022-09-12T11:37:17;0.65;;;0.60;;
8439;SDS011;4257;48.568;7.818;2022-09-12T11:40:24;0.30;;;0.20;;
8439;SDS011;4257;48.568;7.818;2022-09-12T11:43:19;2.95;;;0.30;;
8439;SDS011;4257;48.568;7.818;2022-09-12T11:46:11;0.50;;;0.50;;
8439;SDS011;4257;48.568;7.818;2022-09-12T11:49:04;0.40;;;0.30;;
8439;SDS011;4257;48.568;7.818;2022-09-12T11:51:59;0.30;;;0.30;;
8439;SDS011;4257;48.568;7.818;2022-09-12T11:54:49;0.57;;;0.40;;
8439;SDS011;4257;48.568;7.818;2022-09-12T11:57:44;0.30;;;0.30;;
8439;SDS011;4257;48.568;7.818;2022-09-12T12:00:35;1.00;;;0.50;;
8439;SDS011;4257;48.568;7.818;2022-09-12T12:03:25;0.47;;;0.20;;
8439;SDS011;4257;48.568;7.818;2022-09-12T12:06:17;0.63;;;0.38;;
8439;SDS011;4257;48.568;7.818;2022-09-12T12:09:04;0.63;;;0.50;;
8439;SDS011;4257;48.568;7.818;2022-09-12T12:11:52;7.68;;;0.60;;
8439;SDS011;4257;48.568;7.818;2022-09-12T12:14:42;0.40;;;0.40;;
8439;SDS011;4257;48.568;7.818;2022-09-12T12:17:30;0.68;;;0.40;;
8439;SDS011;4257;48.568;7.818;2022-09-12T12:20:18;1.05;;;0.38;;
8439;SDS011;4257;48.568;7.818;2022-09-12T12:23:05;1.33;;;0.45;;
8439;SDS011;4257;48.568;7.818;2022-09-12T12:25:53;0.30;;;0.30;;
8439;SDS011;4257;48.568;7.818;2022-09-12T12:38:26;0.20;;;0.10;;
8439;SDS011;4257;48.568;7.818;2022-09-12T12:44:48;0.30;;;0.28;;
8439;SDS011;4257;48.568;7.818;2022-09-12T12:47:40;1.10;;;0.25;;
8439;SDS011;4257;48.568;7.818;2022-09-12T12:50:28;0.20;;;0.20;;
8439;SDS011;4257;48.568;7.818;2022-09-12T12:53:17;0.20;;;0.10;;
8439;SDS011;4257;48.568;7.818;2022-09-12T12:56:19;0.30;;;0.20;;
8439;SDS011;4257;48.568;7.818;2022-09-12T12:59:13;0.20;;;0.10;;
8439;SDS011;4257;48.568;7.818;2022-09-12T13:02:02;0.70;;;0.20;;
8439;SDS011;4257;48.568;7.818;2022-09-12T13:04:51;0.30;;;0.10;;
8439;SDS011;4257;48.568;7.818;2022-09-12T13:07:38;0.60;;;0.30;;
8439;SDS011;4257;48.568;7.818;2022-09-12T13:10:26;0.45;;;0.28;;
8439;SDS011;4257;48.568;7.818;2022-09-12T13:13:19;0.30;;;0.20;;
8439;SDS011;4257;48.568;7.818;2022-09-12T13:16:09;0.20;;;0.20;;
8439;SDS011;4257;48.568;7.818;2022-09-12T13:18:56;0.40;;;0.20;;
8439;SDS011;4257;48.568;7.818;2022-09-12T13:21:56;1.05;;;0.57;;
8439;SDS011;4257;48.568;7.818;2022-09-12T13:24:46;0.45;;;0.20;;
8439;SDS011;4257;48.568;7.818;2022-09-12T13:27:36;0.30;;;0.20;;
8439;SDS011;4257;48.568;7.818;2022-09-12T13:30:23;0.30;;;0.20;;
8439;SDS011;4257;48.568;7.818;2022-09-12T13:33:15;0.30;;;0.20;;
8439;SDS011;4257;48.568;7.818;2022-09-12T13:36:19;0.30;;;0.20;;
8439;SDS011;4257;48.568;7.818;2022-09-12T13:39:16;0.82;;;0.20;;
8439;SDS011;4257;48.568;7.818;2022-09-12T13:45:25;0.75;;;0.28;;
8439;SDS011;4257;48.568;7.818;2022-09-12T13:48:14;0.52;;;0.20;;
8439;SDS011;4257;48.568;7.818;2022-09-12T13:51:01;0.82;;;0.38;;
8439;SDS011;4257;48.568;7.818;2022-09-12T13:53:50;0.20;;;0.20;;
8439;SDS011;4257;48.568;7.818;2022-09-12T13:56:46;0.30;;;0.20;;
8439;SDS011;4257;48.568;7.818;2022-09-12T13:59:37;0.30;;;0.17;;
8439;SDS011;4257;48.568;7.818;2022-09-12T14:02:26;0.30;;;0.30;;
8439;SDS011;4257;48.568;7.818;2022-09-12T14:05:17;1.48;;;0.22;;
8439;SDS011;4257;48.568;7.818;2022-09-12T14:08:07;0.55;;;0.40;;
8439;SDS011;4257;48.568;7.818;2022-09-12T14:10:54;0.30;;;0.20;;
8439;SDS011;4257;48.568;7.818;2022-09-12T14:13:42;0.57;;;0.25;;
8439;SDS011;4257;48.568;7.818;2022-09-12T14:16:30;0.43;;;0.32;;
8439;SDS011;4257;48.568;7.818;2022-09-12T14:19:19;0.60;;;0.30;;
8439;SDS011;4257;48.568;7.818;2022-09-12T14:22:07;0.30;;;0.20;;
8439;SDS011;4257;48.568;7.818;2022-09-12T14:25:02;0.47;;;0.20;;
8439;SDS011;4257;48.568;7.818;2022-09-12T14:27:50;1.23;;;0.40;;
8439;SDS011;4257;48.568;7.818;2022-09-12T14:30:39;0.50;;;0.30;;
8439;SDS011;4257;48.568;7.818;2022-09-12T14:33:27;0.35;;;0.20;;
8439;SDS011;4257;48.568;7.818;2022-09-12T14:36:16;0.63;;;0.32;;
8439;SDS011;4257;48.568;7.818;2022-09-12T14:39:06;0.28;;;0.20;;
8439;SDS011;4257;48.568;7.818;2022-09-12T14:42:04;0.35;;;0.25;;
8439;SDS011;4257;48.568;7.818;2022-09-12T14:44:53;0.30;;;0.20;;
8439;SDS011;4257;48.568;7.818;2022-09-12T14:47:46;1.85;;;0.30;;
8439;SDS011;4257;48.568;7.818;2022-09-12T14:50:34;0.57;;;0.40;;
8439;SDS011;4257;48.568;7.818;2022-09-12T14:53:25;0.30;;;0.20;;
8439;SDS011;4257;48.568;7.818;2022-09-12T14:56:18;0.50;;;0.20;;
8439;SDS011;4257;48.568;7.818;2022-09-12T14:59:19;0.20;;;0.10;;
8439;SDS011;4257;48.568;7.818;2022-09-12T15:02:21;0.43;;;0.25;;
8439;SDS011;4257;48.568;7.818;2022-09-12T15:05:16;0.30;;;0.25;;
8439;SDS011;4257;48.568;7.818;2022-09-12T15:08:12;0.40;;;0.25;;
8439;SDS011;4257;48.568;7.818;2022-09-12T15:10:59;0.30;;;0.20;;
8439;SDS011;4257;48.568;7.818;2022-09-12T15:13:46;0.50;;;0.43;;
8439;SDS011;4257;48.568;7.818;2022-09-12T15:16:33;0.40;;;0.40;;
8439;SDS011;4257;48.568;7.818;2022-09-12T15:19:20;0.30;;;0.13;;
8439;SDS011;4257;48.568;7.818;2022-09-12T15:22:09;0.38;;;0.10;;
8439;SDS011;4257;48.568;7.818;2022-09-12T15:24:56;0.38;;;0.30;;
8439;SDS011;4257;48.568;7.818;2022-09-12T15:27:43;0.30;;;0.28;;
8439;SDS011;4257;48.568;7.818;2022-09-12T15:30:30;0.30;;;0.20;;
8439;SDS011;4257;48.568;7.818;2022-09-12T15:33:16;0.20;;;0.20;;
8439;SDS011;4257;48.568;7.818;2022-09-12T15:36:09;0.73;;;0.30;;
8439;SDS011;4257;48.568;7.818;2022-09-12T15:39:01;0.40;;;0.20;;
8439;SDS011;4257;48.568;7.818;2022-09-12T15:41:47;0.55;;;0.28;;
8439;SDS011;4257;48.568;7.818;2022-09-12T15:44:35;0.57;;;0.38;;
8439;SDS011;4257;48.568;7.818;2022-09-12T15:47:22;0.20;;;0.20;;
8439;SDS011;4257;48.568;7.818;2022-09-12T15:50:09;1.00;;;0.20;;
8439;SDS011;4257;48.568;7.818;2022-09-12T15:52:57;0.40;;;0.30;;
8439;SDS011;4257;48.568;7.818;2022-09-12T15:55:45;0.52;;;0.30;;
8439;SDS011;4257;48.568;7.818;2022-09-12T15:58:32;1.85;;;0.30;;
8439;SDS011;4257;48.568;7.818;2022-09-12T16:01:18;0.30;;;0.20;;
8439;SDS011;4257;48.568;7.818;2022-09-12T16:04:16;1.23;;;0.85;;
8439;SDS011;4257;48.568;7.818;2022-09-12T16:07:04;0.30;;;0.10;;
8439;SDS011;4257;48.568;7.818;2022-09-12T16:09:51;1.10;;;0.43;;
8439;SDS011;4257;48.568;7.818;2022-09-12T16:12:39;0.43;;;0.30;;
8439;SDS011;4257;48.568;7.818;2022-09-12T16:15:26;0.20;;;0.20;;
8439;SDS011;4257;48.568;7.818;2022-09-12T16:18:13;0.40;;;0.20;;
8439;SDS011;4257;48.568;7.818;2022-09-12T16:21:00;0.40;;;0.20;;
8439;SDS011;4257;48.568;7.818;2022-09-12T16:23:46;0.88;;;0.52;;
8439;SDS011;4257;48.568;7.818;2022-09-12T16:26:33;0.40;;;0.28;;
8439;SDS011;4257;48.568;7.818;2022-09-12T16:29:22;0.60;;;0.20;;
8439;SDS011;4257;48.568;7.818;2022-09-12T16:32:09;0.22;;;0.20;;
8439;SDS011;4257;48.568;7.818;2022-09-12T16:34:55;0.75;;;0.40;;
8439;SDS011;4257;48.568;7.818;2022-09-12T16:37:42;0.77;;;0.30;;
8439;SDS011;4257;48.568;7.818;2022-09-12T16:40:29;0.40;;;0.30;;
8439;SDS011;4257;48.568;7.818;2022-09-12T16:43:16;1.17;;;0.43;;
8439;SDS011;4257;48.568;7.818;2022-09-12T16:46:05;0.73;;;0.30;;
8439;SDS011;4257;48.568;7.818;2022-09-12T16:48:53;0.50;;;0.22;;
8439;SDS011;4257;48.568;7.818;2022-09-12T16:51:41;0.40;;;0.20;;
8439;SDS011;4257;48.568;7.818;2022-09-12T16:54:31;4.28;;;0.73;;
8439;SDS011;4257;48.568;7.818;2022-09-12T16:57:18;1.88;;;0.45;;
8439;SDS011;4257;48.568;7.818;2022-09-12T17:00:05;0.30;;;0.20;;
8439;SDS011;4257;48.568;7.818;2022-09-12T17:02:54;0.40;;;0.30;;
8439;SDS011;4257;48.568;7.818;2022-09-12T17:05:41;1.05;;;0.32;;
8439;SDS011;4257;48.568;7.818;2022-09-12T17:08:28;0.28;;;0.20;;
8439;SDS011;4257;48.568;7.818;2022-09-12T17:11:15;0.50;;;0.30;;
8439;SDS011;4257;48.568;7.818;2022-09-12T17:14:04;0.75;;;0.50;;
8439;SDS011;4257;48.568;7.818;2022-09-12T17:16:52;1.00;;;0.45;;
8439;SDS011;4257;48.568;7.818;2022-09-12T17:19:41;0.70;;;0.43;;
8439;SDS011;4257;48.568;7.818;2022-09-12T17:22:28;1.33;;;0.50;;
8439;SDS011;4257;48.568;7.818;2022-09-12T17:27:42;0.60;;;0.50;;
8439;SDS011;4257;48.568;7.818;2022-09-12T17:30:29;0.55;;;0.47;;
8439;SDS011;4257;48.568;7.818;2022-09-12T17:33:19;1.15;;;0.50;;
8439;SDS011;4257;48.568;7.818;2022-09-12T17:36:08;0.55;;;0.40;;
8439;SDS011;4257;48.568;7.818;2022-09-12T17:38:56;0.47;;;0.38;;
8439;SDS011;4257;48.568;7.818;2022-09-12T17:41:43;0.50;;;0.38;;
8439;SDS011;4257;48.568;7.818;2022-09-12T17:44:31;0.60;;;0.40;;
8439;SDS011;4257;48.568;7.818;2022-09-12T17:47:18;0.40;;;0.40;;
8439;SDS011;4257;48.568;7.818;2022-09-12T17:50:05;1.55;;;0.57;;
8439;SDS011;4257;48.568;7.818;2022-09-12T17:52:54;0.60;;;0.50;;
8439;SDS011;4257;48.568;7.818;2022-09-12T17:55:42;0.50;;;0.40;;
8439;SDS011;4257;48.568;7.818;2022-09-12T17:58:29;0.50;;;0.30;;
8439;SDS011;4257;48.568;7.818;2022-09-12T18:01:15;0.65;;;0.47;;
8439;SDS011;4257;48.568;7.818;2022-09-12T18:04:20;0.77;;;0.55;;
8439;SDS011;4257;48.568;7.818;2022-09-12T18:07:06;0.70;;;0.55;;